Time;durP1;ratioP1;P1;durP2;ratioP2;P2;SDS_P1;SDS_P2;PMS_P1;PMS_P2;Temp;Humidity;BMP_temperature;BMP_pressure;BME280_temperature;BME280_humidity;BME280_pressure;Samples;Min_cycle;Max_cycle;Signal;HPM_P1;HPM_P2
2023/11/15 00:02:16;;;;;;;14.50;4.20;;;;;;;-147.86;100.00;49799.60;105775;1257;61892;-47
2023/11/15 00:04:43;;;;;;;11.50;4.00;;;;;;;-147.86;100.00;49796.07;105839;1257;60482;-44
2023/11/15 00:07:09;;;;;;;12.70;4.50;;;;;;;-147.86;100.00;49807.05;105835;1254;73792;-47
2023/11/15 00:09:36;;;;;;;14.80;4.30;;;;;;;-147.86;100.00;49814.90;105840;1258;65186;-47
2023/11/15 00:12:04;;;;;;;8.50;4.20;;;;;;;-147.86;100.00;49798.42;105855;1259;72718;-44
2023/11/15 00:14:31;;;;;;;5.90;4.00;;;;;;;-147.86;100.00;49803.13;105853;1267;60720;-44
2023/11/15 00:16:58;;;;;;;11.10;4.40;;;;;;;-147.86;100.00;49801.95;105855;1254;60533;-47
2023/11/15 00:19:30;;;;;;;9.20;3.90;;;;;;;-147.86;100.00;49770.18;105810;1257;74319;-48
2023/11/15 00:21:57;;;;;;;8.60;4.40;;;;;;;-147.86;100.00;49786.26;105806;1258;64533;-46
2023/11/15 00:24:24;;;;;;;15.20;4.80;;;;;;;-147.86;100.00;49790.19;105910;1258;72616;-47
2023/11/15 00:26:51;;;;;;;8.10;3.80;;;;;;;-147.86;100.00;49790.19;105809;1260;61847;-43
2023/11/15 00:29:18;;;;;;;13.70;4.60;;;;;;;-147.86;100.00;49816.07;105852;1259;60804;-45
2023/11/15 00:31:45;;;;;;;11.40;4.50;;;;;;;-147.86;100.00;49807.84;105765;1255;73732;-46
2023/11/15 00:34:12;;;;;;;13.50;4.10;;;;;;;-147.86;100.00;49801.17;105769;1260;65355;-45
2023/11/15 00:36:43;;;;;;;10.90;4.30;;;;;;;-147.86;100.00;49823.53;105910;1254;71421;-45
2023/11/15 00:39:10;;;;;;;7.60;4.50;;;;;;;-147.86;100.00;49838.43;105792;1257;61869;-47
2023/11/15 00:41:39;;;;;;;8.90;4.40;;;;;;;-147.86;100.00;49837.65;105856;1254;60527;-47
2023/11/15 00:44:07;;;;;;;9.40;4.20;;;;;;;-147.86;100.00;49858.43;105841;1258;73522;-47
2023/11/15 00:46:34;;;;;;;12.90;3.90;;;;;;;-147.86;100.00;49839.21;105844;1257;65472;-47
2023/11/15 00:49:04;;;;;;;12.70;4.30;;;;;;;-147.86;100.00;49806.27;105850;1254;72603;-47
2023/11/15 00:51:31;;;;;;;12.50;5.10;;;;;;;-147.86;100.00;49810.59;105819;1257;60425;-43
2023/11/15 00:53:58;;;;;;;12.70;4.50;;;;;;;-147.86;100.00;49788.62;105836;1259;60539;-46
2023/11/15 00:56:26;;;;;;;9.90;3.90;;;;;;;-147.86;100.00;49781.95;105676;1254;73722;-45
2023/11/15 00:58:54;;;;;;;11.30;4.60;;;;;;;-147.86;100.00;49791.36;105656;1260;65381;-47
2023/11/15 01:01:24;;;;;;;10.50;4.20;;;;;;;-147.86;100.00;49776.06;105808;1254;72567;-44
2023/11/15 01:03:58;;;;;;;10.40;3.90;;;;;;;-147.86;100.00;49769.01;105832;1254;61956;-44
2023/11/15 01:06:25;;;;;;;10.20;3.90;;;;;;;-147.86;100.00;49788.62;105611;1254;354849;-45
2023/11/15 01:11:52;;;;;;;13.30;4.10;;;;;;;-147.86;100.00;49626.65;102515;1292;604618;-43
2023/11/15 01:14:20;;;;;;;11.10;4.30;;;;;;;-147.86;100.00;49807.05;105217;1264;60025;-44
2023/11/15 01:16:47;;;;;;;7.20;4.40;;;;;;;-147.86;100.00;49805.48;105034;1267;60784;-43
2023/11/15 01:19:14;;;;;;;10.40;4.70;;;;;;;-147.86;100.00;49817.25;105266;1258;72131;-46
2023/11/15 01:21:41;;;;;;;9.80;3.90;;;;;;;-147.86;100.00;49813.72;105668;1259;65508;-43
2023/11/15 01:24:08;;;;;;;5.10;3.50;;;;;;;-147.86;100.00;49826.27;105140;1255;208482;-44
2023/11/15 01:26:35;;;;;;;13.20;4.30;;;;;;;-147.86;100.00;49842.35;105643;1260;60210;-43
2023/11/15 01:29:02;;;;;;;7.40;4.10;;;;;;;-147.86;100.00;49847.85;105655;1256;60102;-47
2023/11/15 01:31:29;;;;;;;8.60;3.90;;;;;;;-147.86;100.00;49839.21;105640;1257;72063;-45
2023/11/15 01:33:56;;;;;;;8.00;3.70;;;;;;;-147.86;100.00;49838.43;105597;1260;65449;-43
2023/11/15 01:36:23;;;;;;;8.40;3.60;;;;;;;-147.86;100.00;49841.57;105605;1257;72607;-49
2023/11/15 01:38:50;;;;;;;12.00;4.20;;;;;;;-147.86;100.00;49845.10;105530;1261;60050;-47
2023/11/15 01:41:17;;;;;;;7.50;3.80;;;;;;;-147.86;100.00;49849.80;105633;1256;60317;-46
2023/11/15 01:43:45;;;;;;;10.10;4.10;;;;;;;-147.86;100.00;49878.04;105595;1260;72761;-43
2023/11/15 01:46:14;;;;;;;10.50;3.70;;;;;;;-147.86;100.00;49885.11;105636;1260;65412;-45
2023/11/15 01:48:41;;;;;;;9.10;4.40;;;;;;;-147.86;100.00;49896.09;105439;1257;72696;-43
2023/11/15 01:51:08;;;;;;;7.70;3.80;;;;;;;-147.86;100.00;49887.85;105626;1260;60543;-45
2023/11/15 01:53:35;;;;;;;10.60;4.50;;;;;;;-147.86;100.00;49903.54;105567;1257;60274;-43
2023/11/15 01:56:04;;;;;;;10.40;4.30;;;;;;;-147.86;100.00;49905.11;105639;1258;73058;-45
2023/11/15 01:58:31;;;;;;;12.10;4.00;;;;;;;-147.86;100.00;49916.49;105553;1257;65569;-44
2023/11/15 02:00:58;;;;;;;10.30;4.20;;;;;;;-147.86;100.00;49923.94;105667;1256;72599;-43
2023/11/15 02:03:24;;;;;;;7.50;4.10;;;;;;;-147.86;100.00;49920.02;105612;1260;61898;-45
2023/11/15 02:05:52;;;;;;;8.20;3.90;;;;;;;-147.86;100.00;49932.96;105614;1257;60157;-44
2023/11/15 02:08:19;;;;;;;10.30;3.80;;;;;;;-147.86;100.00;49945.90;105393;1263;73065;-44
2023/11/15 02:10:46;;;;;;;9.10;4.00;;;;;;;-147.86;100.00;49934.93;105655;1260;65189;-45
2023/11/15 02:13:26;;;;;;;7.60;3.90;;;;;;;-147.86;100.00;49940.02;105662;1256;72621;-44
2023/11/15 02:15:56;;;;;;;10.10;4.40;;;;;;;-147.86;100.00;49927.47;105606;1259;60324;-44
2023/11/15 02:18:25;;;;;;;10.90;3.90;;;;;;;-147.86;100.00;49922.76;105556;1263;59650;-44
2023/11/15 02:20:53;;;;;;;8.70;4.00;;;;;;;-147.86;100.00;49923.16;105702;1257;73015;-43
2023/11/15 02:23:23;;;;;;;8.80;3.70;;;;;;;-147.86;100.00;49936.49;105590;1257;65466;-44
2023/11/15 02:25:51;;;;;;;7.50;4.40;;;;;;;-147.86;100.00;49948.26;105519;1262;72647;-43
2023/11/15 02:28:18;;;;;;;7.40;3.60;;;;;;;-147.86;100.00;49983.95;105629;1260;60766;-44
2023/11/15 02:30:45;;;;;;;6.80;4.30;;;;;;;-147.86;100.00;50006.70;105668;1256;60259;-44
2023/11/15 02:33:13;;;;;;;10.10;4.50;;;;;;;-147.86;100.00;50007.10;105626;1257;72935;-46
2023/11/15 02:35:41;;;;;;;9.30;4.50;;;;;;;-147.86;100.00;50051.81;105644;1260;65419;-46
2023/11/15 02:38:08;;;;;;;7.90;4.20;;;;;;;-147.86;100.00;50053.77;105674;1258;72462;-47
2023/11/15 02:40:35;;;;;;;8.00;4.50;;;;;;;-147.86;100.00;50087.51;105546;1261;61841;-43
2023/11/15 02:43:10;;;;;;;11.80;5.20;;;;;;;-147.86;100.00;50113.01;105607;1256;60194;-47
2023/11/15 02:45:37;;;;;;;11.20;5.40;;;;;;;-147.86;100.00;50091.04;105508;1258;73139;-45
2023/11/15 02:48:04;;;;;;;9.60;5.40;;;;;;;-147.86;100.00;50129.09;105417;1257;65482;-43
2023/11/15 02:50:32;;;;;;;7.70;4.90;;;;;;;-147.86;100.00;50129.48;105458;1257;72519;-45
2023/11/15 02:52:59;;;;;;;10.60;4.50;;;;;;;-147.86;100.00;50162.04;105540;1260;62008;-48
2023/11/15 02:55:26;;;;;;;11.60;4.90;;;;;;;-147.86;100.00;50175.77;105505;1257;61134;-44
2023/11/15 02:57:53;;;;;;;7.50;4.60;;;;;;;-147.86;100.00;50193.81;105667;1260;72986;-48
2023/11/15 03:00:20;;;;;;;13.50;5.00;;;;;;;-147.86;100.00;50205.19;105660;1260;65522;-47
2023/11/15 03:02:49;;;;;;;10.10;4.80;;;;;;;-147.86;100.00;50219.70;105654;1257;72495;-46
2023/11/15 03:05:17;;;;;;;13.00;5.60;;;;;;;-147.86;100.00;50224.80;105653;1263;61747;-48
2023/11/15 03:07:44;;;;;;;10.60;4.70;;;;;;;-147.86;100.00;50245.20;105604;1257;60457;-53
2023/11/15 03:10:11;;;;;;;10.30;4.90;;;;;;;-147.86;100.00;50249.91;105646;1257;72812;-45
2023/11/15 03:12:38;;;;;;;9.20;4.70;;;;;;;-147.86;100.00;50275.79;105607;1260;65274;-45
2023/11/15 03:15:06;;;;;;;14.70;4.90;;;;;;;-147.86;100.00;50273.45;105585;1257;72625;-46
2023/11/15 03:17:33;;;;;;;11.90;4.90;;;;;;;-147.86;100.00;50297.37;105677;1257;60350;-45
2023/11/15 03:20:00;;;;;;;15.40;5.00;;;;;;;-147.86;100.00;50300.90;105639;1256;59650;-45
2023/11/15 03:22:27;;;;;;;11.60;5.40;;;;;;;-147.86;100.00;50313.46;105599;1258;73015;-47
2023/11/15 03:24:54;;;;;;;11.40;4.70;;;;;;;-147.86;100.00;50308.75;105515;1262;65528;-46
2023/11/15 03:27:21;;;;;;;9.10;4.50;;;;;;;-147.86;100.00;50331.89;105320;1260;72650;-46
2023/11/15 03:29:48;;;;;;;13.20;5.20;;;;;;;-147.86;100.00;50335.03;105219;1257;60962;-44
2023/11/15 03:32:15;;;;;;;13.10;4.90;;;;;;;-147.86;100.00;50353.07;105551;1257;60091;-48
2023/11/15 03:34:43;;;;;;;11.70;4.80;;;;;;;-147.86;100.00;50344.05;105575;1257;73025;-49
2023/11/15 03:37:10;;;;;;;7.70;4.60;;;;;;;-147.86;100.00;50364.45;105582;1261;65478;-49
2023/11/15 03:39:37;;;;;;;12.80;5.00;;;;;;;-147.86;100.00;50378.57;105517;1257;72720;-44
2023/11/15 03:42:05;;;;;;;22.30;5.20;;;;;;;-147.86;100.00;50404.07;105658;1260;61820;-45
2023/11/15 03:44:32;;;;;;;8.10;5.10;;;;;;;-147.86;100.00;50389.16;105642;1257;60383;-45
2023/11/15 03:46:59;;;;;;;8.60;4.50;;;;;;;-147.86;100.00;50418.59;105668;1256;72988;-43
2023/11/15 03:49:26;;;;;;;7.90;4.70;;;;;;;-147.86;100.00;50414.67;105610;1259;65444;-43
2023/11/15 03:51:54;;;;;;;7.00;4.70;;;;;;;-147.86;100.00;50417.80;105681;1254;72595;-45
2023/11/15 03:54:21;;;;;;;9.90;4.90;;;;;;;-147.86;100.00;50448.41;105623;1259;61848;-45
2023/11/15 03:56:48;;;;;;;10.40;4.30;;;;;;;-147.86;100.00;50424.47;105643;1255;60322;-42
2023/11/15 03:59:15;;;;;;;10.20;4.40;;;;;;;-147.86;100.00;50426.04;105650;1260;73003;-46
2023/11/15 04:01:42;;;;;;;8.90;4.50;;;;;;;-147.86;100.00;50433.49;105657;1256;64374;-45
2023/11/15 04:04:23;;;;;;;6.90;4.10;;;;;;;-147.86;100.00;50446.83;105626;1256;72488;-45
2023/11/15 04:06:51;;;;;;;11.50;4.50;;;;;;;-147.86;100.00;50456.25;105606;1259;60245;-43
2023/11/15 04:09:18;;;;;;;8.90;4.40;;;;;;;-147.86;100.00;50438.99;105632;1257;60314;-45
2023/11/15 04:11:45;;;;;;;12.80;4.30;;;;;;;-147.86;100.00;50455.46;105627;1259;73044;-43
2023/11/15 04:14:13;;;;;;;13.20;4.40;;;;;;;-147.86;100.00;50451.15;105589;1259;65398;-43
2023/11/15 04:16:40;;;;;;;9.00;4.00;;;;;;;-147.86;100.00;50456.64;105634;1256;72474;-44
2023/11/15 04:19:09;;;;;;;18.30;4.50;;;;;;;-147.86;100.00;50446.05;105617;1259;61938;-46
2023/11/15 04:21:36;;;;;;;13.10;4.30;;;;;;;-147.86;100.00;50436.63;105655;1257;60333;-43
2023/11/15 04:24:03;;;;;;;8.10;4.40;;;;;;;-147.86;100.00;50432.32;105620;1257;71766;-47
2023/11/15 04:26:30;;;;;;;16.70;4.80;;;;;;;-147.86;100.00;50423.30;105571;1262;65275;-46
2023/11/15 04:28:57;;;;;;;9.90;4.10;;;;;;;-147.86;100.00;50422.91;105641;1257;72566;-45
2023/11/15 04:31:24;;;;;;;12.50;4.50;;;;;;;-147.86;100.00;50407.21;105688;1259;61969;-46
2023/11/15 04:33:51;;;;;;;11.00;4.70;;;;;;;-147.86;100.00;50413.49;105632;1257;60157;-43
2023/11/15 04:36:19;;;;;;;14.00;4.40;;;;;;;-147.86;100.00;50395.45;105676;1259;73021;-45
2023/11/15 04:38:47;;;;;;;10.80;4.30;;;;;;;-147.86;100.00;50396.62;105670;1259;65595;-45
2023/11/15 04:41:14;;;;;;;7.50;4.00;;;;;;;-147.86;100.00;50403.29;105617;1257;72635;-46
2023/11/15 04:43:41;;;;;;;8.30;4.20;;;;;;;-147.86;100.00;50387.21;105680;1259;62215;-44
2023/11/15 04:46:08;;;;;;;10.30;4.10;;;;;;;-147.86;100.00;50375.44;105659;1257;60232;-46
2023/11/15 04:48:35;;;;;;;11.60;3.70;;;;;;;-147.86;100.00;50404.46;105645;1259;73075;-43
2023/11/15 04:51:03;;;;;;;9.40;3.90;;;;;;;-147.86;100.00;50362.49;105632;1259;65500;-45
2023/11/15 04:53:30;;;;;;;7.90;4.00;;;;;;;-147.86;100.00;50353.86;105655;1257;71397;-44
2023/11/15 04:55:58;;;;;;;9.90;4.00;;;;;;;-147.86;100.00;50341.70;105669;1259;60207;-45
2023/11/15 04:58:25;;;;;;;8.20;4.10;;;;;;;-147.86;100.00;50330.71;105543;1256;60160;-46
2023/11/15 05:00:52;;;;;;;11.60;3.90;;;;;;;-147.86;100.00;50305.22;105621;1257;72835;-44
2023/11/15 05:03:20;;;;;;;14.30;3.80;;;;;;;-147.86;100.00;50262.46;105660;1259;65480;-44
2023/11/15 05:05:47;;;;;;;7.10;3.80;;;;;;;-147.86;100.00;50251.87;105613;1257;72571;-44
2023/11/15 05:08:14;;;;;;;9.10;4.00;;;;;;;-147.86;100.00;50209.50;105529;1262;60422;-46
2023/11/15 05:10:41;;;;;;;13.20;4.10;;;;;;;-147.86;100.00;50209.11;105616;1256;60320;-46
2023/11/15 05:13:08;;;;;;;9.00;3.80;;;;;;;-147.86;100.00;50181.66;105588;1258;73133;-44
2023/11/15 05:15:35;;;;;;;7.20;3.80;;;;;;;-147.86;100.00;50159.68;105603;1260;65425;-45
2023/11/15 05:18:03;;;;;;;10.80;3.90;;;;;;;-147.86;100.00;50160.07;105649;1257;72626;-46
2023/11/15 05:20:30;;;;;;;9.00;4.00;;;;;;;-147.86;100.00;50157.33;105680;1258;60513;-45
2023/11/15 05:22:58;;;;;;;8.70;3.50;;;;;;;-147.86;100.00;50144.77;105606;1254;60544;-45
2023/11/15 05:25:25;;;;;;;13.10;3.90;;;;;;;-147.86;100.00;50153.41;105643;1258;73856;-43
2023/11/15 05:27:53;;;;;;;11.90;3.60;;;;;;;-147.86;100.00;50143.21;105660;1255;65254;-44
2023/11/15 05:30:20;;;;;;;9.80;3.90;;;;;;;-147.86;100.00;50160.47;105695;1254;72666;-46
2023/11/15 05:32:47;;;;;;;7.10;3.80;;;;;;;-147.86;100.00;50172.63;105618;1259;62040;-47
2023/11/15 05:35:15;;;;;;;9.30;3.80;;;;;;;-147.86;100.00;50169.88;105653;1256;60460;-46
2023/11/15 05:37:41;;;;;;;6.70;3.80;;;;;;;-147.86;100.00;50184.00;105652;1258;73871;-46
2023/11/15 05:40:12;;;;;;;12.30;4.20;;;;;;;-147.86;100.00;50177.34;105620;1254;65490;-45
2023/11/15 05:42:40;;;;;;;13.30;3.90;;;;;;;-147.86;100.00;50191.07;105642;1257;71635;-43
2023/11/15 05:45:10;;;;;;;9.60;3.60;;;;;;;-147.86;100.00;50188.71;105631;1257;61892;-46
2023/11/15 05:47:40;;;;;;;9.10;3.60;;;;;;;-147.86;100.00;50180.48;105700;1260;60434;-46
2023/11/15 05:50:09;;;;;;;7.10;3.50;;;;;;;-147.86;100.00;50160.07;105649;1259;73864;-46
2023/11/15 05:52:40;;;;;;;7.50;3.00;;;;;;;-147.86;100.00;50149.09;105685;1258;63944;-46
2023/11/15 05:55:08;;;;;;;7.30;3.50;;;;;;;-147.86;100.00;50093.39;105645;1256;71139;-46
2023/11/15 05:57:34;;;;;;;6.30;3.60;;;;;;;-147.86;100.00;50061.62;105676;1254;61644;-47
2023/11/15 06:00:05;;;;;;;9.20;4.20;;;;;;;-147.86;100.00;50007.09;105678;1254;60435;-47
2023/11/15 06:02:40;;;;;;;8.80;3.90;;;;;;;-147.86;100.00;49939.24;105744;1254;73667;-46
2023/11/15 06:05:07;;;;;;;8.60;3.50;;;;;;;-147.86;100.00;49879.61;105656;1258;64385;-44
2023/11/15 06:07:34;;;;;;;7.20;3.80;;;;;;;-147.86;100.00;49818.82;105618;1254;72706;-44
2023/11/15 06:10:01;;;;;;;10.20;4.00;;;;;;;-147.86;100.00;49767.43;105579;1254;62031;-45
2023/11/15 06:12:28;;;;;;;10.90;3.50;;;;;;;-147.86;100.00;49711.74;105626;1254;60882;-44
2023/11/15 06:14:55;;;;;;;12.20;4.60;;;;;;;-147.86;100.00;49638.40;105634;1259;73955;-45
2023/11/15 06:17:22;;;;;;;7.10;3.60;;;;;;;-147.86;100.00;49589.37;105658;1260;65516;-45
2023/11/15 06:19:50;;;;;;;4.70;3.00;;;;;;;-147.86;100.00;49529.36;105619;1254;72855;-46
2023/11/15 06:22:31;;;;;;;8.20;3.10;;;;;;;-147.86;100.00;49498.38;105627;1254;62670;-45
2023/11/15 06:24:57;;;;;;;9.30;4.10;;;;;;;-147.86;100.00;49447.78;105638;1254;60472;-44
2023/11/15 06:27:24;;;;;;;8.90;3.50;;;;;;;-147.86;100.00;49411.31;105644;1258;73902;-46
2023/11/15 06:29:52;;;;;;;17.10;4.00;;;;;;;-147.86;100.00;49379.93;105652;1259;65680;-46
2023/11/15 06:32:19;;;;;;;9.60;3.50;;;;;;;-147.86;100.00;49344.64;105664;1254;72604;-46
2023/11/15 06:34:46;;;;;;;8.90;3.50;;;;;;;-147.86;100.00;49303.46;105616;1254;62033;-45
2023/11/15 06:37:13;;;;;;;8.20;3.60;;;;;;;-147.86;100.00;49291.69;105709;1254;60450;-46
2023/11/15 06:39:43;;;;;;;5.80;3.60;;;;;;;-147.86;100.00;49266.20;105624;1256;73931;-46
2023/11/15 06:42:12;;;;;;;10.40;3.40;;;;;;;-147.86;100.00;49265.41;105684;1255;65535;-43
2023/11/15 06:44:40;;;;;;;9.20;4.00;;;;;;;-147.86;100.00;49234.43;105664;1254;72621;-43
2023/11/15 06:47:08;;;;;;;9.50;3.40;;;;;;;-147.86;100.00;49193.65;105650;1255;61630;-46
2023/11/15 06:49:36;;;;;;;11.50;4.00;;;;;;;-147.86;100.00;49161.49;105683;1254;60405;-45
2023/11/15 06:52:03;;;;;;;7.10;3.70;;;;;;;-147.86;100.00;49154.82;105620;1256;73809;-44
2023/11/15 06:54:31;;;;;;;11.20;3.90;;;;;;;-147.86;100.00;49118.35;105721;1257;65739;-45
2023/11/15 06:56:58;;;;;;;5.00;3.50;;;;;;;-147.86;100.00;49103.45;105633;1259;72643;-46
2023/11/15 06:59:26;;;;;;;7.80;3.80;;;;;;;-147.86;100.00;49065.41;105633;1259;60438;-44
2023/11/15 07:01:53;;;;;;;6.10;3.70;;;;;;;-147.86;100.00;49029.34;105685;1257;60537;-44
2023/11/15 07:04:21;;;;;;;9.10;3.70;;;;;;;-147.86;100.00;49013.25;105656;1260;73862;-44
2023/11/15 07:06:49;;;;;;;12.40;4.00;;;;;;;-147.86;100.00;48986.59;105643;1257;65502;-45
2023/11/15 07:09:16;;;;;;;11.30;4.00;;;;;;;-147.86;100.00;48994.82;105696;1258;72626;-44
2023/11/15 07:11:44;;;;;;;13.00;4.10;;;;;;;-147.86;100.00;48946.59;105641;1260;60315;-43
2023/11/15 07:14:11;;;;;;;14.80;4.30;;;;;;;-147.86;100.00;48928.95;105644;1255;60453;-44
2023/11/15 07:16:54;;;;;;;8.50;2.80;;;;;;;-147.86;100.00;48898.36;105650;1259;73649;-47
2023/11/15 07:19:21;;;;;;;14.60;3.90;;;;;;;-147.86;100.00;48884.63;105673;1257;65366;-46
2023/11/15 07:21:48;;;;;;;14.90;3.60;;;;;;;-147.86;100.00;48907.77;105670;1257;72902;-46
2023/11/15 07:24:16;;;;;;;12.70;3.40;;;;;;;-147.86;100.00;48882.28;105619;1259;60445;-45
2023/11/15 07:26:43;;;;;;;11.60;3.20;;;;;;;-147.86;100.00;48905.80;105652;1257;60411;-46
2023/11/15 07:29:12;;;;;;;13.50;3.80;;;;;;;-147.86;100.00;48910.12;105667;1257;72617;-45
2023/11/15 07:31:42;;;;;;;8.70;3.50;;;;;;;-147.86;100.00;48892.08;105694;1257;65350;-45
2023/11/15 07:34:10;;;;;;;10.50;3.90;;;;;;;-147.86;100.00;48869.34;105676;1257;72656;-43
2023/11/15 07:36:38;;;;;;;6.70;3.80;;;;;;;-147.86;100.00;48865.02;105656;1259;60462;-43
2023/11/15 07:39:05;;;;;;;9.40;3.40;;;;;;;-147.86;100.00;48861.49;105627;1255;60536;-44
2023/11/15 07:41:35;;;;;;;9.00;3.90;;;;;;;-147.86;100.00;48864.24;105640;1260;73720;-45
2023/11/15 07:44:04;;;;;;;9.90;3.60;;;;;;;-147.86;100.00;48856.39;105694;1259;65354;-44
2023/11/15 07:46:31;;;;;;;16.10;3.50;;;;;;;-147.86;100.00;48850.51;105639;1254;72575;-47
2023/11/15 07:49:00;;;;;;;8.10;3.60;;;;;;;-147.86;100.00;48846.98;105626;1258;60758;-45
2023/11/15 07:51:28;;;;;;;9.20;4.00;;;;;;;-147.86;100.00;48863.85;105624;1254;60476;-46
2023/11/15 07:53:55;;;;;;;13.90;4.00;;;;;;;-147.86;100.00;48838.75;105647;1260;73858;-46
2023/11/15 07:56:23;;;;;;;9.10;4.20;;;;;;;-147.86;100.00;48838.75;105642;1257;65335;-46
2023/11/15 07:58:50;;;;;;;10.70;3.50;;;;;;;-147.86;100.00;48834.04;105671;1260;72572;-46
2023/11/15 08:01:17;;;;;;;8.60;4.00;;;;;;;-147.86;100.00;48832.48;105678;1258;60435;-47
2023/11/15 08:03:44;;;;;;;11.60;4.20;;;;;;;-147.86;100.00;48818.36;105613;1259;60418;-44
2023/11/15 08:06:11;;;;;;;11.00;4.00;;;;;;;-147.86;100.00;48808.55;105423;1260;74108;-43
2023/11/15 08:08:38;;;;;;;11.40;4.00;;;;;;;-147.86;100.00;48825.81;105393;1254;64500;-46
2023/11/15 08:11:05;;;;;;;14.00;4.40;;;;;;;-147.86;100.00;48813.65;105628;1257;72708;-45
2023/11/15 08:13:32;;;;;;;9.30;4.00;;;;;;;-147.86;100.00;48809.34;105632;1260;60463;-49
2023/11/15 08:15:59;;;;;;;16.80;3.80;;;;;;;-147.86;100.00;48803.46;105680;1258;60539;-44
2023/11/15 08:18:26;;;;;;;9.40;3.80;;;;;;;-147.86;100.00;48789.34;105597;1259;73832;-46
2023/11/15 08:20:56;;;;;;;12.10;4.60;;;;;;;-147.86;100.00;48783.07;105713;1258;65476;-44
2023/11/15 08:23:23;;;;;;;22.60;4.50;;;;;;;-147.86;100.00;48791.70;105708;1254;72728;-45
2023/11/15 08:25:51;;;;;;;22.10;5.10;;;;;;;-147.86;100.00;48760.32;105632;1254;61926;-46
2023/11/15 08:28:22;;;;;;;35.50;5.60;;;;;;;-147.86;100.00;48757.97;105704;1256;60450;-46
2023/11/15 08:30:49;;;;;;;24.40;5.00;;;;;;;-147.86;100.00;48765.81;105651;1260;74072;-46
2023/11/15 08:33:16;;;;;;;46.30;5.90;;;;;;;-147.86;100.00;48766.60;105625;1260;65637;-47
2023/11/15 08:35:44;;;;;;;38.60;5.20;;;;;;;-147.86;100.00;48760.32;105632;1259;72603;-49
2023/11/15 08:38:12;;;;;;;13.80;4.40;;;;;;;-147.86;100.00;48775.22;105639;1254;61821;-47
2023/11/15 08:40:39;;;;;;;46.50;5.80;;;;;;;-147.86;100.00;48772.48;105685;1254;60536;-44
2023/11/15 08:43:08;;;;;;;34.50;5.70;;;;;;;-147.86;100.00;48770.91;105645;1260;72097;-45
2023/11/15 08:45:41;;;;;;;34.20;6.40;;;;;;;-147.86;100.00;48737.58;105655;1260;65423;-45
2023/11/15 08:48:08;;;;;;;73.70;7.70;;;;;;;-147.86;100.00;48719.15;105680;1254;72517;-43
2023/11/15 08:50:35;;;;;;;18.60;4.70;;;;;;;-147.86;100.00;48699.54;105636;1254;61909;-46
2023/11/15 08:53:03;;;;;;;91.00;9.40;;;;;;;-147.86;100.00;48685.04;105675;1254;60518;-46
2023/11/15 08:55:30;;;;;;;51.20;6.10;;;;;;;-147.86;100.00;48667.78;105644;1256;73833;-44
2023/11/15 08:57:58;;;;;;;61.80;6.30;;;;;;;-147.86;100.00;48666.21;105658;1260;65669;-46
2023/11/15 09:00:25;;;;;;;86.20;7.10;;;;;;;-147.86;100.00;48686.60;105744;1257;72597;-45
2023/11/15 09:02:52;;;;;;;36.20;6.50;;;;;;;-147.86;100.00;48673.66;105645;1257;60456;-45
2023/11/15 09:05:22;;;;;;;87.50;7.30;;;;;;;-147.86;100.00;48673.27;105653;1257;60445;-45
2023/11/15 09:07:49;;;;;;;129.10;11.50;;;;;;;-147.86;100.00;48660.73;105682;1260;74714;-47
2023/11/15 09:10:17;;;;;;;63.80;8.40;;;;;;;-147.86;100.00;48660.73;105651;1258;66258;-46
2023/11/15 09:12:47;;;;;;;43.20;5.60;;;;;;;-147.86;100.00;48669.35;105620;1254;71899;-44
2023/11/15 09:15:14;;;;;;;39.50;5.40;;;;;;;-147.86;100.00;48675.63;105643;1260;60431;-46
2023/11/15 09:17:48;;;;;;;52.00;7.00;;;;;;;-147.86;100.00;48637.59;105636;1257;60418;-45
2023/11/15 09:20:21;;;;;;;49.00;7.20;;;;;;;-147.86;100.00;48624.65;105643;1258;73808;-46
2023/11/15 09:22:48;;;;;;;61.20;7.20;;;;;;;-147.86;100.00;48610.93;105656;1260;65266;-42
2023/11/15 09:25:21;;;;;;;22.80;5.00;;;;;;;-147.86;100.00;48617.98;105619;1257;72278;-44
2023/11/15 09:27:54;;;;;;;19.80;4.80;;;;;;;-147.86;100.00;48610.93;105682;1256;60548;-44
2023/11/15 09:30:21;;;;;;;8.90;4.00;;;;;;;-147.86;100.00;48593.68;105662;1259;60367;-44
2023/11/15 09:32:50;;;;;;;9.90;3.90;;;;;;;-147.86;100.00;48580.73;105661;1255;72712;-43
2023/11/15 09:35:18;;;;;;;16.00;4.40;;;;;;;-147.86;100.00;48563.87;105680;1256;64718;-46
2023/11/15 09:37:45;;;;;;;32.30;5.80;;;;;;;-147.86;100.00;48548.97;105657;1257;72324;-45
2023/11/15 09:40:12;;;;;;;20.40;4.70;;;;;;;-147.86;100.00;48523.48;105677;1259;60341;-45
2023/11/15 09:42:42;;;;;;;13.80;3.60;;;;;;;-147.86;100.00;48521.13;105649;1256;60328;-45
2023/11/15 09:45:17;;;;;;;9.10;4.30;;;;;;;-147.86;100.00;48527.80;105675;1259;74469;-45
2023/11/15 09:47:46;;;;;;;24.30;4.90;;;;;;;-147.86;100.00;48519.17;105664;1259;65784;-43
2023/11/15 09:50:17;;;;;;;10.20;4.30;;;;;;;-147.86;100.00;48503.88;105646;1257;72700;-45
2023/11/15 09:52:49;;;;;;;31.60;5.30;;;;;;;-147.86;100.00;48491.73;105620;1255;60975;-42
2023/11/15 09:55:18;;;;;;;81.50;7.40;;;;;;;-147.86;100.00;48494.86;105697;1254;60431;-45
2023/11/15 09:57:46;;;;;;;41.70;5.40;;;;;;;-147.86;100.00;48460.75;105684;1259;74593;-44
2023/11/15 10:00:16;;;;;;;28.70;4.20;;;;;;;-147.86;100.00;48439.96;105625;1260;65412;-44
2023/11/15 10:02:52;;;;;;;20.20;4.40;;;;;;;-147.86;100.00;48433.30;105666;1259;71185;-43
2023/11/15 10:05:26;;;;;;;9.80;3.40;;;;;;;-147.86;100.00;48419.19;105680;1258;61945;-44
2023/11/15 10:08:11;;;;;;;11.70;3.90;;;;;;;-147.86;100.00;48421.54;105652;1257;60490;-47
2023/11/15 10:10:39;;;;;;;13.20;3.90;;;;;;;-147.86;100.00;48425.85;105642;1260;75175;-44
2023/11/15 10:13:16;;;;;;;6.80;3.70;;;;;;;-147.86;100.00;48416.44;105665;1255;66481;-44
2023/11/15 10:15:44;;;;;;;10.50;3.60;;;;;;;-147.86;100.00;48412.91;105649;1260;73479;-46
2023/11/15 10:18:19;;;;;;;10.70;4.00;;;;;;;-147.86;100.00;48404.68;105648;1260;63006;-46
2023/11/15 10:20:47;;;;;;;8.90;3.10;;;;;;;-147.86;100.00;48416.44;105634;1257;60479;-45
2023/11/15 10:23:16;;;;;;;10.00;3.60;;;;;;;-147.86;100.00;48408.21;105651;1259;72156;-44
2023/11/15 10:25:54;;;;;;;7.10;3.40;;;;;;;-147.86;100.00;48418.40;105615;1261;64346;-44
2023/11/15 10:28:22;;;;;;;7.50;3.40;;;;;;;-147.86;100.00;48415.27;105605;1259;73340;-46
2023/11/15 10:31:21;;;;;;;10.80;3.90;;;;;;;-147.86;100.00;48403.11;105622;1259;60421;-44
2023/11/15 10:33:49;;;;;;;5.40;3.40;;;;;;;-147.86;100.00;48390.96;105550;1254;61247;-43
2023/11/15 10:36:21;;;;;;;10.50;3.10;;;;;;;-147.86;100.00;48377.23;105659;1260;74659;-43
2023/11/15 10:38:55;;;;;;;14.30;4.00;;;;;;;-147.86;100.00;48391.74;105610;1258;65994;-44
2023/11/15 10:41:23;;;;;;;11.30;4.00;;;;;;;-147.86;100.00;48385.47;105687;1254;72554;-44
2023/11/15 10:43:51;;;;;;;9.80;3.50;;;;;;;-147.86;100.00;48391.35;105611;1255;60609;-45
2023/11/15 10:46:26;;;;;;;9.00;3.60;;;;;;;-147.86;100.00;48386.25;105396;1254;60427;-47
2023/11/15 10:48:56;;;;;;;7.60;3.30;;;;;;;-147.86;100.00;48377.23;105433;1259;74873;-44
2023/11/15 10:51:29;;;;;;;11.70;3.20;;;;;;;-147.86;100.00;48386.25;105488;1257;65188;-45
2023/11/15 10:53:56;;;;;;;10.60;3.50;;;;;;;-147.86;100.00;48376.45;105614;1260;73153;-45
2023/11/15 10:56:23;;;;;;;9.80;3.60;;;;;;;-147.86;100.00;48363.12;105706;1260;60626;-44
2023/11/15 10:58:52;;;;;;;19.40;4.00;;;;;;;-147.86;100.00;48374.49;105521;1257;60421;-45
2023/11/15 11:01:19;;;;;;;17.10;4.10;;;;;;;-147.86;100.00;48366.26;105674;1259;74768;-46
2023/11/15 11:03:51;;;;;;;15.70;4.70;;;;;;;-147.86;100.00;48367.43;105664;1260;65767;-48
2023/11/15 11:06:34;;;;;;;15.30;3.70;;;;;;;-147.86;100.00;48369.00;105659;1258;72782;-47